Time;durP1;ratioP1;P1;durP2;ratioP2;P2;SDS_P1;SDS_P2;PMS_P1;PMS_P2;Temp;Humidity;BMP_temperature;BMP_pressure;BME280_temperature;BME280_humidity;BME280_pressure;Samples;Min_cycle;Max_cycle;Signal;HPM_P1;HPM_P2
2022/09/09 00:00:14;;;;;;;1.88;0.77;;;;;;;15.15;100.00;98115.41;4143525;28;20288;-48
2022/09/09 00:02:27;;;;;;;2.83;0.80;;;;;;;15.20;100.00;98118.13;4152759;28;20602;-48
2022/09/09 00:04:37;;;;;;;1.30;0.82;;;;;;;15.26;100.00;98112.28;4184648;28;20249;-49
2022/09/09 00:06:55;;;;;;;4.07;0.90;;;;;;;15.30;100.00;98113.34;4170151;28;20314;-48
2022/09/09 00:09:05;;;;;;;1.33;1.10;;;;;;;15.36;99.79;98112.19;4153035;28;20239;-49
2022/09/09 00:11:10;;;;;;;3.10;0.80;;;;;;;15.42;99.21;98116.56;4152986;28;20328;-48
2022/09/09 00:13:39;;;;;;;3.47;0.80;;;;;;;15.42;99.12;98100.00;4159189;28;20340;-48
2022/09/09 00:15:50;;;;;;;1.70;0.70;;;;;;;15.45;98.78;98116.00;4167123;28;20232;-49
2022/09/09 00:18:29;;;;;;;2.50;0.77;;;;;;;15.13;100.00;98106.59;4166742;28;20236;-49
2022/09/09 00:20:36;;;;;;;1.60;1.00;;;;;;;15.29;99.47;98103.41;4142598;28;20213;-47
2022/09/09 00:22:41;;;;;;;1.50;1.00;;;;;;;15.40;98.96;98096.75;4144633;28;20224;-48
2022/09/09 00:24:56;;;;;;;2.38;0.73;;;;;;;15.41;98.70;98101.13;4159267;28;20300;-48
2022/09/09 00:27:05;;;;;;;0.95;0.65;;;;;;;15.47;98.35;98108.25;4159386;28;20320;-48
2022/09/09 00:29:13;;;;;;;1.52;0.90;;;;;;;15.50;98.58;98102.13;4167907;28;20664;-47
2022/09/09 00:31:25;;;;;;;1.85;0.70;;;;;;;15.54;98.20;98100.44;4154801;28;20949;-47
2022/09/09 00:33:27;;;;;;;1.25;0.70;;;;;;;15.51;98.02;98111.25;4186698;28;20231;-48
2022/09/09 00:35:38;;;;;;;0.63;0.63;;;;;;;15.48;97.97;98114.56;4171915;28;20299;-49
2022/09/09 00:37:40;;;;;;;3.83;0.82;;;;;;;15.45;97.71;98104.97;4166899;28;20210;-48
2022/09/09 00:39:45;;;;;;;2.33;0.82;;;;;;;15.44;97.57;98102.50;4171045;28;20280;-49
2022/09/09 00:41:59;;;;;;;2.10;0.80;;;;;;;15.40;97.27;98102.25;4162953;28;20241;-48
2022/09/09 00:44:03;;;;;;;0.85;0.60;;;;;;;15.42;97.30;98116.56;4186305;28;20246;-48
2022/09/09 00:46:26;;;;;;;1.42;0.95;;;;;;;15.39;96.73;98113.56;4156287;28;20560;-48
2022/09/09 00:48:40;;;;;;;3.42;0.82;;;;;;;15.09;98.78;98120.13;4154793;28;20260;-49
2022/09/09 00:50:55;;;;;;;2.17;0.80;;;;;;;15.11;98.63;98106.06;4174281;28;20592;-48
2022/09/09 00:53:23;;;;;;;1.80;0.93;;;;;;;15.22;98.23;98105.69;4153774;28;20284;-49
2022/09/09 00:55:49;;;;;;;3.90;0.82;;;;;;;15.11;98.79;98109.63;4149971;28;20283;-48
2022/09/09 00:57:52;;;;;;;0.88;0.75;;;;;;;14.89;100.00;98100.22;4157183;28;20207;-48
2022/09/09 01:00:19;;;;;;;2.80;0.90;;;;;;;14.78;100.00;98099.47;4184296;28;20790;-49
2022/09/09 01:02:28;;;;;;;2.53;1.08;;;;;;;14.94;100.00;98095.47;4187062;28;20580;-48
2022/09/09 01:04:34;;;;;;;7.15;1.10;;;;;;;14.96;100.00;98084.97;4171448;28;20234;-48
2022/09/09 01:06:38;;;;;;;2.15;0.95;;;;;;;14.96;100.00;98096.00;4146151;28;20205;-48
2022/09/09 01:09:10;;;;;;;3.03;0.90;;;;;;;14.94;100.00;98095.47;4157420;28;20238;-48
2022/09/09 01:11:25;;;;;;;3.00;1.25;;;;;;;14.92;100.00;98097.69;4154940;28;20210;-48
2022/09/09 01:13:30;;;;;;;2.72;1.00;;;;;;;14.92;100.00;98083.94;4186129;28;20243;-48
2022/09/09 01:15:32;;;;;;;6.07;1.33;;;;;;;14.89;100.00;98084.47;4156627;28;20209;-49
2022/09/09 01:18:13;;;;;;;1.70;0.93;;;;;;;14.99;100.00;98089.94;4156349;28;20205;-48
2022/09/09 01:20:25;;;;;;;6.25;1.10;;;;;;;15.04;100.00;98092.63;4104951;28;20221;-47
2022/09/09 01:23:02;;;;;;;2.58;1.25;;;;;;;15.04;100.00;98089.84;4133127;28;20213;-47
2022/09/09 01:25:22;;;;;;;2.95;0.88;;;;;;;15.04;100.00;98095.38;4156390;28;20210;-47
2022/09/09 01:27:25;;;;;;;3.40;2.17;;;;;;;14.94;100.00;98092.72;4187579;28;20213;-47
2022/09/09 01:29:26;;;;;;;2.22;1.17;;;;;;;15.01;100.00;98093.22;4155890;28;20240;-47
2022/09/09 01:31:36;;;;;;;3.97;1.00;;;;;;;15.08;100.00;98087.34;4160539;28;20219;-48
2022/09/09 01:33:38;;;;;;;1.30;0.80;;;;;;;15.07;100.00;98092.06;4168413;28;20255;-47
2022/09/09 01:35:46;;;;;;;2.67;1.20;;;;;;;15.04;100.00;98091.81;4160323;28;20200;-47
2022/09/09 01:37:47;;;;;;;1.85;0.95;;;;;;;15.12;100.00;98100.28;4168854;28;20204;-47
2022/09/09 01:39:49;;;;;;;4.07;0.98;;;;;;;15.14;100.00;98103.56;4187057;28;20267;-48
2022/09/09 01:41:51;;;;;;;5.07;1.98;;;;;;;15.05;100.00;98105.31;4185896;28;20212;-47
2022/09/09 01:43:54;;;;;;;2.47;0.95;;;;;;;15.16;100.00;98106.84;4158223;28;20296;-47
2022/09/09 01:45:59;;;;;;;3.47;0.88;;;;;;;15.16;100.00;98106.84;4165364;28;20200;-47
2022/09/09 01:48:02;;;;;;;3.63;1.20;;;;;;;15.22;100.00;98113.97;4182683;28;20290;-48
2022/09/09 01:50:04;;;;;;;1.80;0.90;;;;;;;15.25;100.00;98116.16;4137635;28;20312;-47
2022/09/09 01:52:08;;;;;;;6.32;1.13;;;;;;;15.30;100.00;98113.34;4156110;28;20682;-48
2022/09/09 01:54:10;;;;;;;5.80;1.00;;;;;;;15.30;99.90;98116.09;4155654;28;20303;-47
2022/09/09 01:56:15;;;;;;;1.92;0.70;;;;;;;15.32;99.63;98122.19;4188206;28;20207;-47
2022/09/09 01:58:37;;;;;;;7.93;0.90;;;;;;;15.31;99.32;98126.00;4170578;28;20267;-48
2022/09/09 02:00:45;;;;;;;1.67;0.90;;;;;;;15.26;98.96;98120.56;4169661;28;20221;-46
2022/09/09 02:03:09;;;;;;;1.83;0.70;;;;;;;15.27;98.65;98116.69;4162135;28;20240;-48
2022/09/09 02:05:39;;;;;;;1.45;0.60;;;;;;;15.18;98.37;98118.44;4162371;28;20207;-48
2022/09/09 02:07:48;;;;;;;4.45;0.70;;;;;;;15.26;97.74;98112.28;4153465;28;20268;-48
2022/09/09 02:09:55;;;;;;;1.35;1.10;;;;;;;15.25;97.76;98110.63;4172035;28;20591;-48
2022/09/09 02:12:07;;;;;;;2.85;0.73;;;;;;;15.30;97.71;98113.34;4152001;28;20201;-49
2022/09/09 02:14:12;;;;;;;1.35;0.70;;;;;;;15.32;97.34;98113.91;4162798;28;20196;-48
2022/09/09 02:16:32;;;;;;;1.13;1.02;;;;;;;15.17;98.62;98108.47;4157361;28;20209;-49
2022/09/09 02:18:46;;;;;;;2.15;0.77;;;;;;;15.15;98.61;98110.72;4153647;28;20228;-47
2022/09/09 02:20:48;;;;;;;2.35;0.77;;;;;;;15.03;99.69;98113.03;4151980;28;20197;-49
2022/09/09 02:22:50;;;;;;;1.27;0.88;;;;;;;15.10;99.29;98112.72;4153525;28;20376;-49
2022/09/09 02:24:55;;;;;;;6.45;1.60;;;;;;;15.14;99.02;98109.06;4153204;28;20241;-48
2022/09/09 02:26:58;;;;;;;3.65;0.80;;;;;;;15.24;98.21;98108.97;4156163;28;20213;-49
2022/09/09 02:29:03;;;;;;;2.25;0.75;;;;;;;15.17;98.31;98105.72;4168007;28;20338;-49
2022/09/09 02:31:05;;;;;;;2.00;1.05;;;;;;;15.27;97.81;98108.41;4170051;28;20341;-50
2022/09/09 02:33:07;;;;;;;2.33;0.63;;;;;;;15.14;98.79;98102.72;4185367;28;20250;-48
2022/09/09 02:35:14;;;;;;;2.13;0.73;;;;;;;15.15;98.64;98093.34;4168839;28;20276;-50
2022/09/09 02:37:19;;;;;;;1.33;0.65;;;;;;;15.17;98.68;98096.66;4155590;28;20349;-49
2022/09/09 02:39:20;;;;;;;2.85;0.73;;;;;;;15.15;98.76;98088.66;4151915;28;20283;-49
2022/09/09 02:41:33;;;;;;;4.72;0.88;;;;;;;15.11;98.52;98097.81;4160458;28;20677;-48
2022/09/09 02:43:35;;;;;;;1.20;0.60;;;;;;;15.16;98.42;98084.78;4154133;28;20211;-49
2022/09/09 02:45:44;;;;;;;4.63;1.13;;;;;;;15.16;98.47;98090.31;4152436;28;20276;-50
2022/09/09 02:47:47;;;;;;;2.95;0.77;;;;;;;15.27;98.06;98097.38;4185367;28;20262;-49
2022/09/09 02:50:05;;;;;;;9.07;0.80;;;;;;;15.23;97.94;98093.53;4162047;28;20310;-49
2022/09/09 02:52:07;;;;;;;1.27;0.90;;;;;;;15.16;98.63;98079.28;4168603;28;20291;-49
2022/09/09 02:54:31;;;;;;;2.42;0.70;;;;;;;15.18;98.54;98088.09;4161581;28;20244;-49
2022/09/09 02:56:39;;;;;;;4.82;0.70;;;;;;;15.14;99.06;98081.50;4161870;28;20240;-48
2022/09/09 02:58:41;;;;;;;1.13;0.68;;;;;;;15.13;99.11;98093.66;4182410;28;20632;-50
2022/09/09 03:00:45;;;;;;;3.80;1.10;;;;;;;14.86;100.00;98085.06;4184955;28;20661;-50
2022/09/09 03:02:47;;;;;;;3.80;1.00;;;;;;;14.84;100.00;98084.53;4185280;28;20203;-49
2022/09/09 03:04:51;;;;;;;3.13;0.98;;;;;;;14.92;100.00;98086.69;4154970;28;20216;-49
2022/09/09 03:06:53;;;;;;;2.35;0.80;;;;;;;14.98;100.00;98085.53;4159208;28;20215;-48
2022/09/09 03:08:56;;;;;;;2.80;1.00;;;;;;;15.01;100.00;98086.84;4154075;28;20240;-49
2022/09/09 03:11:01;;;;;;;3.53;0.95;;;;;;;15.03;99.83;98087.41;4154604;28;20209;-48
2022/09/09 03:13:05;;;;;;;1.00;0.65;;;;;;;14.99;99.77;98087.16;4158040;28;20211;-46
2022/09/09 03:15:07;;;;;;;3.90;0.80;;;;;;;14.87;100.00;98083.97;4158972;28;20713;-46
2022/09/09 03:17:09;;;;;;;2.03;0.68;;;;;;;14.91;100.00;98087.75;4168945;28;20211;-48
2022/09/09 03:19:10;;;;;;;2.78;0.75;;;;;;;14.93;100.00;98095.75;4153541;28;20609;-47
2022/09/09 03:21:12;;;;;;;2.10;0.75;;;;;;;14.93;99.74;98096.59;4185314;28;20227;-47
2022/09/09 03:23:14;;;;;;;2.72;1.25;;;;;;;14.98;99.18;98093.78;4160097;28;20211;-48
2022/09/09 03:25:17;;;;;;;1.85;0.88;;;;;;;14.96;99.01;98101.50;4171049;28;20196;-47
2022/09/09 03:27:19;;;;;;;3.60;0.70;;;;;;;14.87;99.96;98097.72;4153916;28;20201;-48
2022/09/09 03:29:21;;;;;;;1.02;0.60;;;;;;;14.96;99.45;98101.50;4170130;28;20327;-49
2022/09/09 03:31:23;;;;;;;1.45;0.90;;;;;;;14.96;99.07;98101.50;4154106;28;20208;-49
2022/09/09 03:33:25;;;;;;;5.03;1.00;;;;;;;14.92;99.18;98099.63;4153975;28;20257;-49
2022/09/09 03:35:26;;;;;;;4.93;0.75;;;;;;;14.94;98.75;98102.91;4153340;28;20215;-49
2022/09/09 03:37:28;;;;;;;1.75;0.77;;;;;;;14.94;98.60;98103.75;4154184;28;20216;-47
2022/09/09 03:39:30;;;;;;;0.80;0.60;;;;;;;14.92;98.41;98100.47;4168756;28;20694;-46
2022/09/09 03:41:32;;;;;;;8.13;1.65;;;;;;;14.85;99.03;98116.50;4154596;28;20233;-47
2022/09/09 03:43:34;;;;;;;3.13;0.70;;;;;;;14.82;99.62;98095.00;4167571;28;20203;-46
2022/09/09 03:45:35;;;;;;;0.82;0.80;;;;;;;14.69;100.00;98100.38;4153226;28;20766;-47
2022/09/09 03:47:37;;;;;;;4.55;1.60;;;;;;;14.69;100.00;98098.41;4155644;28;20213;-47
2022/09/09 03:49:39;;;;;;;2.10;1.20;;;;;;;14.68;100.00;98105.03;4184109;28;20231;-48
2022/09/09 03:51:41;;;;;;;1.92;0.77;;;;;;;14.71;99.64;98104.44;4159512;28;20670;-47
2022/09/09 03:53:42;;;;;;;1.98;0.80;;;;;;;14.67;99.48;98100.66;4171341;28;20215;-48
2022/09/09 03:55:45;;;;;;;2.78;0.82;;;;;;;14.67;99.31;98103.41;4156651;28;20236;-47
2022/09/09 03:57:47;;;;;;;6.18;0.60;;;;;;;14.73;99.07;98102.25;4183389;28;20203;-47
2022/09/09 03:59:48;;;;;;;3.00;1.30;;;;;;;14.80;98.31;98091.72;4154743;28;20219;-48
2022/09/09 04:01:50;;;;;;;2.17;0.70;;;;;;;14.71;98.34;98103.66;4156821;28;20212;-47
2022/09/09 04:03:52;;;;;;;1.45;0.50;;;;;;;14.66;98.82;98106.44;4185658;28;20240;-47
2022/09/09 04:05:56;;;;;;;3.38;1.15;;;;;;;14.65;98.86;98105.63;4155960;28;20252;-49
2022/09/09 04:07:58;;;;;;;1.92;0.90;;;;;;;14.67;98.80;98106.16;4171270;28;20323;-47
2022/09/09 04:10:00;;;;;;;1.52;0.80;;;;;;;14.73;98.20;98107.75;4156772;28;20435;-46
2022/09/09 04:12:02;;;;;;;2.03;1.05;;;;;;;14.65;98.11;98111.13;4162428;28;20226;-46
2022/09/09 04:14:05;;;;;;;3.40;0.90;;;;;;;14.63;98.01;98113.31;4164258;28;20232;-46
2022/09/09 04:16:10;;;;;;;5.00;2.28;;;;;;;14.35;100.00;98115.97;4186545;28;20210;-47
2022/09/09 04:18:11;;;;;;;5.97;2.70;;;;;;;14.34;100.00;98109.66;4155434;28;20260;-46
2022/09/09 04:20:19;;;;;;;21.75;11.13;;;;;;;14.33;100.00;98119.03;4171285;28;20242;-46
2022/09/09 04:22:22;;;;;;;3.88;3.38;;;;;;;14.19;100.00;98129.03;4188704;28;20221;-47
2022/09/09 04:24:26;;;;;;;3.47;2.53;;;;;;;14.10;100.00;98119.66;4171211;28;20208;-47
2022/09/09 04:26:28;;;;;;;2.20;1.30;;;;;;;14.16;100.00;98124.03;4158271;28;20291;-46
2022/09/09 04:28:31;;;;;;;3.20;1.10;;;;;;;14.25;100.00;98119.63;4173472;28;20323;-46
2022/09/09 04:30:34;;;;;;;4.18;1.23;;;;;;;14.28;100.00;98127.31;4168071;28;20864;-48
2022/09/09 04:32:36;;;;;;;4.63;0.95;;;;;;;14.31;100.00;98121.22;4155147;28;20280;-46
2022/09/09 04:34:38;;;;;;;3.03;1.33;;;;;;;14.31;100.00;98132.25;4186114;28;20226;-47
2022/09/09 04:36:40;;;;;;;2.45;1.10;;;;;;;14.37;100.00;98130.31;4155437;28;20575;-47
2022/09/09 04:38:44;;;;;;;2.95;0.95;;;;;;;14.48;100.00;98132.72;4157609;28;20220;-46
2022/09/09 04:40:46;;;;;;;6.38;0.90;;;;;;;14.55;100.00;98126.88;4163334;28;20280;-46
2022/09/09 04:42:49;;;;;;;4.13;0.95;;;;;;;14.48;100.00;98124.44;4152001;28;20205;-46
2022/09/09 04:44:51;;;;;;;2.22;0.70;;;;;;;14.51;100.00;98126.63;4156052;28;20211;-46
2022/09/09 04:46:52;;;;;;;3.90;0.77;;;;;;;14.52;100.00;98128.28;4156283;28;20205;-46
2022/09/09 04:48:54;;;;;;;2.80;0.98;;;;;;;14.53;100.00;98135.44;4153728;28;20396;-47
2022/09/09 04:50:56;;;;;;;3.55;1.17;;;;;;;14.59;100.00;98134.31;4160731;28;20249;-47
2022/09/09 04:53:04;;;;;;;1.83;0.80;;;;;;;14.55;100.00;98127.72;4155310;28;20907;-46
2022/09/09 04:55:07;;;;;;;8.00;1.55;;;;;;;14.59;100.00;98134.31;4186686;28;20206;-46
2022/09/09 04:57:10;;;;;;;3.38;1.05;;;;;;;14.62;100.00;98133.72;4158173;28;20201;-46
2022/09/09 04:59:18;;;;;;;3.20;0.88;;;;;;;14.62;100.00;98139.22;4163458;28;20235;-46
2022/09/09 05:01:24;;;;;;;4.70;0.90;;;;;;;14.60;100.00;98141.44;4157061;28;20212;-46
2022/09/09 05:03:26;;;;;;;3.72;1.02;;;;;;;14.57;100.00;98138.44;4155457;28;20300;-47
2022/09/09 05:05:28;;;;;;;2.95;0.90;;;;;;;14.55;100.00;98146.16;4154469;28;20295;-48
2022/09/09 05:07:31;;;;;;;4.13;0.70;;;;;;;14.66;100.00;98147.75;4158866;28;20204;-48
2022/09/09 05:09:32;;;;;;;2.47;0.98;;;;;;;14.65;100.00;98146.94;4155296;28;20312;-46
2022/09/09 05:11:36;;;;;;;2.05;0.70;;;;;;;14.60;100.00;98152.47;4157883;28;20219;-47
2022/09/09 05:13:38;;;;;;;3.75;1.20;;;;;;;14.58;100.00;98148.34;4179046;28;20215;-48
2022/09/09 05:15:42;;;;;;;4.25;0.90;;;;;;;14.64;100.00;98147.22;4150306;28;20600;-47
2022/09/09 05:17:44;;;;;;;3.70;1.00;;;;;;;14.62;100.00;98150.25;4158232;28;20686;-47
2022/09/09 05:19:46;;;;;;;0.80;0.73;;;;;;;14.68;100.00;98149.09;4160544;28;20197;-47
2022/09/09 05:21:47;;;;;;;3.30;1.08;;;;;;;14.71;100.00;98145.78;4140637;28;20221;-47
2022/09/09 05:23:51;;;;;;;3.65;0.88;;;;;;;14.71;100.00;98145.78;4161812;28;20585;-48
2022/09/09 05:25:56;;;;;;;3.47;0.85;;;;;;;14.76;100.00;98134.72;4168548;28;20342;-47
2022/09/09 05:27:59;;;;;;;6.90;0.98;;;;;;;14.80;100.00;98148.75;4155185;28;20714;-47
2022/09/09 05:30:01;;;;;;;3.92;0.82;;;;;;;14.88;100.00;98148.13;4155540;28;20256;-46
2022/09/09 05:32:03;;;;;;;5.15;1.13;;;;;;;14.94;100.00;98147.00;4187786;28;20234;-46
2022/09/09 05:34:05;;;;;;;3.83;0.90;;;;;;;15.01;100.00;98153.84;4159813;28;20308;-47
2022/09/09 05:36:10;;;;;;;2.00;1.00;;;;;;;14.99;100.00;98149.72;4184761;28;20203;-47
2022/09/09 05:38:12;;;;;;;2.47;0.95;;;;;;;15.08;100.00;98153.50;4184716;28;20233;-47
2022/09/09 05:40:14;;;;;;;6.03;1.05;;;;;;;15.04;100.00;98156.00;4156114;28;20217;-48
2022/09/09 05:42:16;;;;;;;5.07;1.40;;;;;;;15.15;100.00;98148.47;4172978;28;20724;-48
2022/09/09 05:44:17;;;;;;;2.70;0.95;;;;;;;15.23;100.00;98154.19;4154793;28;20204;-48
2022/09/09 05:46:21;;;;;;;2.50;0.88;;;;;;;15.22;100.00;98149.78;4156858;28;20288;-47
2022/09/09 05:48:23;;;;;;;2.05;1.15;;;;;;;15.31;100.00;98147.25;4187588;28;20731;-47
2022/09/09 05:50:25;;;;;;;3.58;1.05;;;;;;;15.34;100.00;98168.75;4152105;28;20231;-47
2022/09/09 05:52:32;;;;;;;3.00;0.90;;;;;;;15.40;100.00;98162.91;4145586;28;20284;-47
2022/09/09 05:54:34;;;;;;;3.30;1.23;;;;;;;15.43;100.00;98167.84;4185857;28;20200;-47
2022/09/09 05:56:35;;;;;;;4.10;1.42;;;;;;;15.38;100.00;98170.66;4153263;28;20610;-47
2022/09/09 05:58:38;;;;;;;1.92;1.17;;;;;;;15.45;100.00;98171.16;4156582;28;20215;-48
2022/09/09 06:00:39;;;;;;;2.75;0.90;;;;;;;15.39;100.00;98172.31;4159943;28;20196;-47
2022/09/09 06:02:41;;;;;;;3.85;1.10;;;;;;;15.37;100.00;98180.03;4169602;28;20299;-46
2022/09/09 06:04:43;;;;;;;5.15;1.50;;;;;;;15.32;100.00;98180.09;4169762;28;20208;-47
2022/09/09 06:06:44;;;;;;;9.25;1.45;;;;;;;15.36;100.00;98172.88;4156825;28;20213;-47
2022/09/09 06:08:47;;;;;;;3.17;1.20;;;;;;;15.22;100.00;98177.38;4158250;28;20261;-46
2022/09/09 06:10:48;;;;;;;2.28;1.10;;;;;;;15.25;100.00;98168.53;4154749;28;20789;-45
2022/09/09 06:12:52;;;;;;;4.30;1.10;;;;;;;15.27;100.00;98170.97;4155453;28;20284;-46
2022/09/09 06:14:54;;;;;;;2.45;0.98;;;;;;;15.20;100.00;98178.75;4169170;28;20204;-45
2022/09/09 06:16:56;;;;;;;3.42;1.50;;;;;;;15.34;100.00;98171.50;4156616;28;20641;-46
2022/09/09 06:18:59;;;;;;;3.88;1.00;;;;;;;15.30;100.00;98175.94;4185983;28;20331;-46
2022/09/09 06:21:06;;;;;;;7.65;1.42;;;;;;;15.29;100.00;98179.81;4170283;28;20605;-46
2022/09/09 06:23:08;;;;;;;4.30;1.33;;;;;;;15.27;100.00;98182.84;4156220;28;20216;-46
2022/09/09 06:25:09;;;;;;;1.30;1.02;;;;;;;15.23;100.00;98179.00;4162093;28;20204;-46
2022/09/09 06:27:13;;;;;;;4.57;1.42;;;;;;;15.24;100.00;98186.16;4161659;28;20205;-46
2022/09/09 06:29:15;;;;;;;2.55;1.58;;;;;;;15.45;100.00;98181.34;4143574;28;20316;-47
2022/09/09 06:31:22;;;;;;;2.65;1.17;;;;;;;15.45;100.00;98175.81;4154216;28;20220;-47
2022/09/09 06:33:39;;;;;;;3.15;1.00;;;;;;;15.61;100.00;98175.41;4186502;28;20290;-46
2022/09/09 06:35:40;;;;;;;2.67;1.35;;;;;;;15.67;100.00;98182.50;4144272;28;20213;-46
2022/09/09 06:37:45;;;;;;;2.55;1.00;;;;;;;15.73;100.00;98175.00;4160111;28;20299;-46
2022/09/09 06:39:48;;;;;;;6.47;1.23;;;;;;;15.76;100.00;98174.44;4160403;28;20220;-46
2022/09/09 06:41:52;;;;;;;5.95;2.35;;;;;;;15.89;100.00;98176.50;4155554;28;20208;-47
2022/09/09 06:43:58;;;;;;;2.78;1.17;;;;;;;15.91;100.00;98180.59;4159903;28;20202;-45
2022/09/09 06:46:05;;;;;;;4.90;1.10;;;;;;;16.12;100.00;98164.63;4171283;28;20200;-46
2022/09/09 06:48:10;;;;;;;2.97;1.17;;;;;;;16.58;100.00;98180.38;4171644;28;20228;-46
2022/09/09 06:50:11;;;;;;;2.63;0.88;;;;;;;16.68;100.00;98179.44;4155890;28;20263;-46
2022/09/09 06:52:13;;;;;;;4.75;0.98;;;;;;;16.57;100.00;98178.72;4151361;28;20209;-46
2022/09/09 06:54:15;;;;;;;9.48;1.73;;;;;;;16.60;99.38;98180.91;4170370;28;20212;-46
2022/09/09 06:56:22;;;;;;;3.75;1.00;;;;;;;16.52;100.00;98175.22;4158824;28;20662;-46
2022/09/09 06:58:24;;;;;;;3.85;1.20;;;;;;;16.61;99.74;98177.00;4168459;28;20231;-45
2022/09/09 07:00:26;;;;;;;5.88;1.20;;;;;;;16.60;100.00;98175.38;4153819;28;20936;-46
2022/09/09 07:02:28;;;;;;;4.85;1.10;;;;;;;16.54;99.63;98173.78;4168171;28;20216;-46
2022/09/09 07:04:29;;;;;;;3.30;1.48;;;;;;;16.51;100.00;98185.44;4156732;28;20276;-47
2022/09/09 07:06:34;;;;;;;3.97;1.20;;;;;;;16.46;100.00;98182.75;4158246;28;20659;-47
2022/09/09 07:08:36;;;;;;;2.70;0.90;;;;;;;16.45;100.00;98172.81;4153001;28;20275;-47
2022/09/09 07:10:37;;;;;;;4.18;1.20;;;;;;;16.34;100.00;98173.19;4154448;28;20224;-47
2022/09/09 07:12:39;;;;;;;1.25;0.70;;;;;;;16.54;100.00;98179.31;4164044;28;20303;-47
2022/09/09 07:14:41;;;;;;;5.07;1.15;;;;;;;16.55;100.00;98172.69;4167029;28;20204;-47
2022/09/09 07:16:44;;;;;;;3.70;0.90;;;;;;;16.56;100.00;98176.28;4160459;28;20204;-46
2022/09/09 07:18:47;;;;;;;3.17;0.95;;;;;;;16.64;100.00;98172.84;4154115;28;20264;-47
2022/09/09 07:20:56;;;;;;;4.05;0.90;;;;;;;16.75;100.00;98175.16;4161414;28;20204;-47
2022/09/09 07:22:59;;;;;;;1.90;0.90;;;;;;;16.60;99.88;98178.13;4155069;28;20299;-46
2022/09/09 07:25:02;;;;;;;3.17;1.05;;;;;;;16.61;100.00;98188.06;4153919;28;20204;-47
2022/09/09 07:27:05;;;;;;;4.35;1.10;;;;;;;16.42;99.55;98178.91;4184327;28;20218;-46
2022/09/09 07:29:08;;;;;;;2.63;0.70;;;;;;;16.57;98.68;98178.72;4160434;28;20399;-47
2022/09/09 07:31:16;;;;;;;4.55;1.40;;;;;;;16.27;99.98;98179.09;4167047;28;20315;-46
2022/09/09 07:33:19;;;;;;;5.63;1.52;;;;;;;16.35;100.00;98181.19;4151215;28;20216;-46
2022/09/09 07:35:21;;;;;;;3.13;1.00;;;;;;;16.50;100.00;98177.44;4153136;28;20211;-46
2022/09/09 07:37:23;;;;;;;5.72;1.02;;;;;;;16.54;100.00;98184.84;4185894;28;20280;-47
2022/09/09 07:39:25;;;;;;;7.63;1.15;;;;;;;16.63;100.00;98183.06;4152162;28;20227;-46
2022/09/09 07:41:30;;;;;;;9.60;1.10;;;;;;;16.53;100.00;98198.94;4169045;28;20201;-46
2022/09/09 07:43:33;;;;;;;4.90;1.08;;;;;;;16.47;98.96;98189.06;4166118;28;20244;-46
2022/09/09 07:45:35;;;;;;;3.55;1.02;;;;;;;16.59;98.33;98195.84;4152138;28;20201;-48
2022/09/09 07:47:37;;;;;;;5.80;1.02;;;;;;;16.62;98.48;98195.22;4150024;28;20213;-46
2022/09/09 07:49:39;;;;;;;4.80;1.20;;;;;;;16.53;98.32;98202.53;4168143;28;20287;-47
2022/09/09 07:51:43;;;;;;;2.03;1.25;;;;;;;16.69;98.24;98198.44;4168993;28;20263;-46
2022/09/09 07:53:45;;;;;;;2.63;0.90;;;;;;;16.62;98.24;98199.97;4153551;28;20311;-46
2022/09/09 07:55:47;;;;;;;6.10;1.42;;;;;;;16.64;98.08;98195.75;4167305;28;20207;-46
2022/09/09 07:57:49;;;;;;;3.08;1.02;;;;;;;16.66;98.00;98199.06;4168133;28;20211;-46
2022/09/09 07:59:51;;;;;;;4.72;1.20;;;;;;;16.78;97.88;98202.22;4160209;28;20211;-47
2022/09/09 08:01:54;;;;;;;4.15;1.17;;;;;;;16.66;97.03;98206.50;4155538;28;20204;-46
2022/09/09 08:04:01;;;;;;;3.63;1.00;;;;;;;16.68;98.07;98205.09;4186623;28;20704;-47
2022/09/09 08:06:06;;;;;;;4.47;1.27;;;;;;;16.70;97.89;98213.09;4160318;28;20248;-47
2022/09/09 08:08:08;;;;;;;12.30;1.52;;;;;;;16.63;98.68;98213.44;4183406;28;20947;-46
2022/09/09 08:10:10;;;;;;;2.88;1.00;;;;;;;16.60;98.30;98218.75;4160845;28;20308;-47
2022/09/09 08:12:12;;;;;;;4.53;1.10;;;;;;;16.55;98.17;98213.31;4168442;28;20261;-47
2022/09/09 08:14:14;;;;;;;3.53;1.35;;;;;;;16.44;98.01;98220.88;4151837;28;20288;-47
2022/09/09 08:16:21;;;;;;;11.48;3.67;;;;;;;16.56;98.33;98226.00;4154130;28;20299;-48
2022/09/09 08:18:23;;;;;;;2.30;1.10;;;;;;;16.62;98.10;98222.88;4154158;28;20236;-47
2022/09/09 08:20:25;;;;;;;7.05;1.60;;;;;;;16.66;97.15;98226.69;4151473;28;20223;-47
2022/09/09 08:22:27;;;;;;;6.78;1.80;;;;;;;16.79;97.13;98225.97;4152116;28;20209;-47
2022/09/09 08:24:29;;;;;;;8.20;1.77;;;;;;;16.90;96.57;98232.97;4152635;28;20787;-47
2022/09/09 08:26:34;;;;;;;5.72;1.23;;;;;;;16.91;95.05;98223.59;4169035;28;20666;-48
2022/09/09 08:28:35;;;;;;;8.60;1.30;;;;;;;16.79;94.82;98225.97;4151486;28;20292;-47
2022/09/09 08:30:37;;;;;;;3.33;1.35;;;;;;;16.85;93.29;98229.47;4153558;28;20233;-49
2022/09/09 08:32:39;;;;;;;9.77;1.67;;;;;;;16.91;93.29;98229.13;4168608;28;20311;-47
2022/09/09 08:34:46;;;;;;;4.07;0.90;;;;;;;17.01;91.95;98234.50;4158185;28;20212;-48
2022/09/09 08:36:51;;;;;;;4.38;1.20;;;;;;;17.20;91.46;98227.81;4143517;28;20210;-47
2022/09/09 08:38:54;;;;;;;8.32;1.42;;;;;;;17.32;90.29;98241.22;4167779;28;20239;-47
2022/09/09 08:41:07;;;;;;;4.50;1.20;;;;;;;17.32;89.46;98230.97;4143060;28;20257;-47
2022/09/09 08:43:09;;;;;;;2.17;1.10;;;;;;;17.40;90.14;98233.06;4154571;28;20211;-49
2022/09/09 08:45:24;;;;;;;6.32;1.02;;;;;;;17.54;90.89;98216.56;4185730;28;20660;-47
2022/09/09 08:47:32;;;;;;;10.98;1.55;;;;;;;17.59;89.82;98220.03;4149557;28;20213;-47
2022/09/09 08:49:49;;;;;;;2.85;1.17;;;;;;;17.37;88.52;98235.63;4187579;28;20689;-48
2022/09/09 08:51:53;;;;;;;4.63;1.17;;;;;;;17.23;89.03;98224.47;4159238;28;20239;-47
2022/09/09 08:53:58;;;;;;;5.30;1.38;;;;;;;17.18;89.09;98224.56;4146801;28;20798;-46
2022/09/09 08:56:05;;;;;;;4.32;1.50;;;;;;;17.24;89.45;98228.88;4170970;28;20216;-47
2022/09/09 08:58:39;;;;;;;2.35;1.15;;;;;;;17.22;89.81;98225.59;4188115;28;20662;-47
2022/09/09 09:00:50;;;;;;;3.45;1.00;;;;;;;17.29;90.66;98227.97;4165882;28;20196;-48
2022/09/09 09:03:25;;;;;;;6.32;1.20;;;;;;;17.28;90.67;98218.03;4185607;28;20268;-47
2022/09/09 09:05:33;;;;;;;4.88;1.60;;;;;;;17.47;90.06;98233.56;4170556;28;20208;-47
2022/09/09 09:07:43;;;;;;;2.22;1.00;;;;;;;17.67;88.89;98224.06;4162566;28;20204;-48
2022/09/09 09:10:12;;;;;;;4.50;1.10;;;;;;;17.77;87.64;98218.34;4187762;28;20216;-48
2022/09/09 09:12:40;;;;;;;4.60;1.05;;;;;;;17.81;86.75;98233.25;4187699;28;20204;-47
2022/09/09 09:14:43;;;;;;;5.57;1.08;;;;;;;17.82;87.20;98229.34;4171774;28;20568;-48
2022/09/09 09:16:58;;;;;;;5.00;1.20;;;;;;;18.00;87.50;98214.63;4157152;28;20723;-46
2022/09/09 09:19:00;;;;;;;2.38;1.05;;;;;;;17.89;86.10;98227.00;4154650;28;20797;-47
2022/09/09 09:21:12;;;;;;;4.68;1.00;;;;;;;18.00;84.75;98225.69;4164659;28;20200;-47
2022/09/09 09:23:22;;;;;;;5.18;0.90;;;;;;;17.97;84.42;98221.59;4169930;28;20585;-47
2022/09/09 09:25:31;;;;;;;6.95;1.40;;;;;;;18.25;84.45;98226.03;4156083;28;20204;-48
2022/09/09 09:27:35;;;;;;;2.55;0.93;;;;;;;18.49;83.42;98234.19;4160115;28;20242;-47
2022/09/09 09:29:42;;;;;;;3.72;1.05;;;;;;;18.57;83.60;98231.53;4161157;28;20213;-48
2022/09/09 09:32:04;;;;;;;2.30;0.80;;;;;;;18.86;81.76;98225.66;4157646;28;20264;-47
2022/09/09 09:34:08;;;;;;;5.85;1.35;;;;;;;18.50;81.94;98235.81;4138943;28;20205;-48
2022/09/09 09:36:15;;;;;;;8.80;1.05;;;;;;;18.52;80.60;98230.81;4186936;28;20200;-48
2022/09/09 09:38:22;;;;;;;4.63;1.20;;;;;;;18.90;80.75;98223.88;4166158;28;20219;-47
2022/09/09 09:40:58;;;;;;;4.85;1.10;;;;;;;19.14;79.84;98227.25;4185767;28;20211;-47
2022/09/09 09:43:01;;;;;;;2.05;1.10;;;;;;;19.17;77.30;98212.75;4161332;28;20207;-47
2022/09/09 09:45:21;;;;;;;3.25;0.80;;;;;;;18.90;77.91;98218.34;4156278;28;20211;-48
2022/09/09 09:47:23;;;;;;;4.57;1.25;;;;;;;18.58;78.64;98216.53;4170249;28;20201;-47
2022/09/09 09:49:25;;;;;;;6.18;0.90;;;;;;;18.54;79.31;98209.97;4153562;28;20320;-47